Mayflower, Arkansas
Current Conditions -  °F | °C
As of 2:58 PM on Tuesday 21 Oct 2014 (Local Time) from KLRF Reporting Station
Clear Clear  
Wind Chill: 78°   Ceiling: Unl
Heat Index: 79°   Visibility: 10mi
Dew Point: 53°   Wind: 2mph
Humidity: 41%   Direction: NA
Pressure: 30.05"   Gusts: NA
Location:  34.96°N, 92.43°W
Report Text: KLRF 211958Z AUTO VRB02KT 10SM CLR 26/12 A3005 RMK AO2 SLP177 T02580116
Loading
Personal Weather Stations






























Interactive Weather Map
Tropical Storm Tracking
New forecast layout! Learn more

10-Day Weather Forecast

Advertisements
Track Severe Weather on mobile